Time;durP1;ratioP1;P1;durP2;ratioP2;P2;SDS_P1;SDS_P2;PMS_P1;PMS_P2;Temp;Humidity;BMP_temperature;BMP_pressure;BME280_temperature;BME280_humidity;BME280_pressure;Samples;Min_cycle;Max_cycle;Signal;HPM_P1;HPM_P2
2022/07/02 00:00:38;;;;;;;7.18;3.13;;;14.20;99.90;;;;;;4988122;28;20135;-75
2022/07/02 00:03:05;;;;;;;7.30;3.28;;;14.10;99.90;;;;;;4983062;28;20046;-75
2022/07/02 00:05:32;;;;;;;4.57;2.90;;;14.10;99.90;;;;;;5004352;28;20050;-74
2022/07/02 00:08:04;;;;;;;5.63;2.90;;;14.10;99.90;;;;;;4987709;28;20049;-75
2022/07/02 00:10:30;;;;;;;8.05;3.00;;;14.00;99.90;;;;;;4983810;28;20712;-74
2022/07/02 00:12:56;;;;;;;4.45;2.75;;;14.00;99.90;;;;;;4970768;28;20095;-74
2022/07/02 00:15:22;;;;;;;5.78;3.22;;;14.00;99.90;;;;;;4984490;28;20691;-75
2022/07/02 00:17:49;;;;;;;6.72;3.20;;;14.00;99.90;;;;;;4987198;28;20045;-75
2022/07/02 00:20:14;;;;;;;7.10;3.53;;;14.00;99.90;;;;;;5008917;28;20041;-74
2022/07/02 00:22:45;;;;;;;5.70;2.88;;;14.00;99.90;;;;;;5003014;28;20056;-74
2022/07/02 00:25:10;;;;;;;4.57;2.92;;;13.90;99.90;;;;;;4988287;28;20039;-74
2022/07/02 00:27:42;;;;;;;5.80;3.60;;;14.00;99.90;;;;;;4987549;28;20076;-74
2022/07/02 00:30:08;;;;;;;4.30;2.83;;;13.90;99.90;;;;;;4987674;28;20054;-74
2022/07/02 00:32:36;;;;;;;5.28;3.42;;;14.00;99.90;;;;;;4973588;28;20073;-74
2022/07/02 00:35:13;;;;;;;5.45;3.30;;;13.90;99.90;;;;;;5002877;28;20069;-74
2022/07/02 00:37:43;;;;;;;6.13;3.30;;;13.90;99.90;;;;;;5003006;28;20085;-74
2022/07/02 00:40:09;;;;;;;7.38;3.58;;;13.90;99.90;;;;;;4971685;28;20523;-74
2022/07/02 00:42:36;;;;;;;4.65;2.95;;;13.90;99.90;;;;;;4986549;28;20038;-74
2022/07/02 00:45:02;;;;;;;7.97;4.00;;;13.90;99.90;;;;;;4969987;28;20128;-75
2022/07/02 00:47:30;;;;;;;4.63;3.17;;;13.90;99.90;;;;;;4987064;28;20137;-75
2022/07/02 00:50:01;;;;;;;8.05;3.47;;;13.90;99.90;;;;;;4967748;28;20045;-74
2022/07/02 00:52:27;;;;;;;7.38;3.50;;;13.90;99.90;;;;;;4983844;28;20053;-74
2022/07/02 00:54:53;;;;;;;6.45;3.45;;;13.90;99.90;;;;;;4986289;28;20053;-74
2022/07/02 00:57:19;;;;;;;6.97;3.95;;;13.80;99.90;;;;;;4953700;28;20593;-74
2022/07/02 00:59:45;;;;;;;7.22;3.80;;;13.80;99.90;;;;;;4986230;28;20073;-75
2022/07/02 01:02:11;;;;;;;6.70;3.55;;;13.80;99.90;;;;;;4970321;28;20116;-74
2022/07/02 01:04:39;;;;;;;5.82;3.30;;;13.70;99.90;;;;;;4987296;28;20112;-75
2022/07/02 01:07:08;;;;;;;7.82;3.53;;;13.80;99.90;;;;;;5000842;28;20092;-74
2022/07/02 01:12:24;;;;;;;5.88;3.65;;;13.60;99.90;;;;;;5001173;28;20100;-74
2022/07/02 01:14:51;;;;;;;6.80;3.70;;;13.60;99.90;;;;;;4996927;28;20041;-74
2022/07/02 01:17:20;;;;;;;5.03;3.45;;;13.50;99.90;;;;;;4985314;28;20049;-74
2022/07/02 01:19:46;;;;;;;6.20;3.83;;;13.50;99.90;;;;;;4969039;28;20089;-74
2022/07/02 01:22:20;;;;;;;6.57;3.75;;;13.50;99.90;;;;;;4985110;28;20481;-74
2022/07/02 01:24:48;;;;;;;7.00;4.13;;;13.40;99.90;;;;;;5002253;28;20042;-75
2022/07/02 01:27:15;;;;;;;5.95;3.65;;;13.40;99.90;;;;;;5003760;28;20073;-74
2022/07/02 01:29:41;;;;;;;6.22;3.45;;;13.30;99.90;;;;;;4984950;28;20053;-74
2022/07/02 01:32:11;;;;;;;7.72;4.20;;;13.30;99.90;;;;;;4985004;28;20483;-75
2022/07/02 01:34:46;;;;;;;6.10;3.47;;;13.20;99.90;;;;;;5000901;28;20064;-74
2022/07/02 01:37:13;;;;;;;6.15;4.07;;;13.20;99.90;;;;;;4985585;28;20070;-75
2022/07/02 01:39:41;;;;;;;6.70;3.75;;;13.10;99.90;;;;;;4997602;28;20064;-75
2022/07/02 01:42:07;;;;;;;4.80;4.20;;;13.10;99.90;;;;;;4978963;28;20049;-75
2022/07/02 01:44:35;;;;;;;5.75;4.13;;;13.10;99.90;;;;;;5000558;28;20085;-74
2022/07/02 01:47:11;;;;;;;6.93;4.65;;;13.10;99.90;;;;;;5001242;28;20049;-74
2022/07/02 01:49:37;;;;;;;6.95;4.88;;;13.10;99.90;;;;;;5000012;28;20054;-74
2022/07/02 01:52:04;;;;;;;7.40;5.32;;;13.10;99.90;;;;;;4998882;28;20519;-74
2022/07/02 01:54:30;;;;;;;6.80;4.80;;;13.10;99.90;;;;;;4982820;28;20097;-75
2022/07/02 01:56:56;;;;;;;6.38;4.85;;;13.10;99.90;;;;;;5002210;28;20460;-75
2022/07/02 01:59:22;;;;;;;6.53;4.72;;;13.10;99.90;;;;;;4967180;28;20388;-74
2022/07/02 02:01:48;;;;;;;7.75;4.95;;;13.20;99.90;;;;;;4983724;28;20034;-74
2022/07/02 02:04:14;;;;;;;7.97;4.97;;;13.10;99.90;;;;;;4985697;28;20500;-74
2022/07/02 02:06:40;;;;;;;6.82;5.20;;;13.10;99.90;;;;;;4985892;28;20053;-74
2022/07/02 02:09:06;;;;;;;7.57;5.18;;;13.10;99.90;;;;;;4984735;28;20129;-74
2022/07/02 02:11:32;;;;;;;7.28;5.85;;;13.10;99.90;;;;;;4985896;28;20408;-75
2022/07/02 02:13:58;;;;;;;8.38;5.43;;;13.10;99.90;;;;;;5002741;28;20233;-74
2022/07/02 02:16:28;;;;;;;8.27;5.95;;;13.10;99.90;;;;;;5002682;28;20046;-75
2022/07/02 02:18:57;;;;;;;6.75;5.25;;;13.10;99.90;;;;;;5013105;28;20092;-74
2022/07/02 02:21:24;;;;;;;7.65;5.45;;;13.10;99.90;;;;;;4984586;28;20037;-74
2022/07/02 02:23:50;;;;;;;7.20;5.32;;;13.00;99.90;;;;;;5003864;28;20111;-74
2022/07/02 02:26:16;;;;;;;7.72;5.22;;;13.00;99.90;;;;;;5003039;28;20050;-75
2022/07/02 02:28:42;;;;;;;6.63;5.75;;;13.00;99.90;;;;;;4986527;28;20444;-74
2022/07/02 02:31:08;;;;;;;7.82;5.25;;;12.90;99.90;;;;;;4996840;28;20053;-75
2022/07/02 02:33:34;;;;;;;7.63;5.38;;;12.90;99.90;;;;;;4950503;28;20105;-74
2022/07/02 02:35:59;;;;;;;7.95;5.53;;;12.90;99.90;;;;;;4981703;28;20045;-74
2022/07/02 02:38:25;;;;;;;7.43;5.68;;;12.90;99.90;;;;;;4986320;28;20050;-75
2022/07/02 02:40:51;;;;;;;9.60;6.57;;;12.90;99.90;;;;;;4985404;28;20076;-74
2022/07/02 02:43:20;;;;;;;9.85;6.50;;;12.90;99.90;;;;;;4998679;28;20136;-74
2022/07/02 02:45:47;;;;;;;8.15;6.68;;;12.90;99.90;;;;;;4965311;28;20070;-74
2022/07/02 02:48:13;;;;;;;9.85;6.20;;;12.90;99.90;;;;;;5001607;28;20505;-74
2022/07/02 02:50:39;;;;;;;8.07;6.38;;;12.90;99.90;;;;;;4969007;28;20065;-74
2022/07/02 02:53:07;;;;;;;9.40;6.13;;;12.90;99.90;;;;;;4980298;28;20042;-74
2022/07/02 02:55:33;;;;;;;8.00;6.15;;;12.90;99.90;;;;;;4977667;28;20042;-74
2022/07/02 02:57:59;;;;;;;8.90;6.55;;;12.90;99.90;;;;;;4965822;28;20450;-74
2022/07/02 03:00:25;;;;;;;7.80;6.07;;;12.90;99.90;;;;;;4967596;28;20404;-74
2022/07/02 03:02:51;;;;;;;8.80;7.05;;;12.90;99.90;;;;;;4979500;28;20042;-74
2022/07/02 03:05:16;;;;;;;8.55;6.65;;;12.80;99.90;;;;;;4983385;28;20042;-74
2022/07/02 03:07:42;;;;;;;11.10;7.00;;;12.80;99.90;;;;;;4969076;28;20133;-74
2022/07/02 03:10:08;;;;;;;9.57;6.70;;;12.80;99.90;;;;;;4997698;28;20498;-74
2022/07/02 03:12:34;;;;;;;9.45;6.55;;;12.80;99.90;;;;;;4984238;28;20050;-74
2022/07/02 03:15:00;;;;;;;10.18;7.68;;;12.80;99.90;;;;;;4999774;28;20045;-74
2022/07/02 03:17:28;;;;;;;9.93;7.60;;;12.80;99.90;;;;;;4983195;28;20134;-74
2022/07/02 03:19:54;;;;;;;9.40;7.15;;;12.80;99.90;;;;;;4983377;28;20069;-74
2022/07/02 03:22:20;;;;;;;9.80;7.70;;;12.80;99.90;;;;;;4983413;28;20049;-74
2022/07/02 03:24:46;;;;;;;8.80;7.80;;;12.70;99.90;;;;;;4984116;28;20042;-74
2022/07/02 03:27:11;;;;;;;9.52;8.23;;;12.70;99.90;;;;;;4981056;28;20065;-74
2022/07/02 03:29:37;;;;;;;12.82;8.80;;;12.80;99.90;;;;;;4966560;28;20110;-74
2022/07/02 03:32:03;;;;;;;10.55;8.50;;;12.70;99.90;;;;;;4979451;28;20069;-74
2022/07/02 03:34:29;;;;;;;9.60;8.40;;;12.70;99.90;;;;;;4982846;28;20560;-74
2022/07/02 03:36:55;;;;;;;10.02;7.43;;;12.70;99.90;;;;;;4981654;28;20034;-74
2022/07/02 03:39:21;;;;;;;9.95;7.97;;;12.80;99.90;;;;;;5000910;28;20060;-75
2022/07/02 03:41:46;;;;;;;8.82;7.25;;;12.70;99.90;;;;;;5001684;28;20209;-74
2022/07/02 03:44:12;;;;;;;9.82;8.30;;;12.70;99.90;;;;;;4983629;28;20073;-74
2022/07/02 03:46:38;;;;;;;8.95;8.10;;;12.70;99.90;;;;;;4984231;28;20155;-74
2022/07/02 03:49:04;;;;;;;11.35;8.90;;;12.70;99.90;;;;;;4968191;28;20536;-74
2022/07/02 03:51:30;;;;;;;10.85;9.52;;;12.70;99.90;;;;;;5000173;28;20198;-74
2022/07/02 03:53:55;;;;;;;12.55;8.90;;;12.70;99.90;;;;;;4982013;28;20644;-74
2022/07/02 03:56:21;;;;;;;10.48;8.65;;;12.70;99.90;;;;;;4985035;28;20038;-74
2022/07/02 03:58:50;;;;;;;10.48;9.43;;;12.70;99.90;;;;;;4966602;28;20050;-74
2022/07/02 04:01:16;;;;;;;10.73;8.52;;;12.70;99.90;;;;;;4986773;28;20083;-74
2022/07/02 04:03:41;;;;;;;10.10;8.27;;;12.70;99.90;;;;;;4981684;28;20046;-74
2022/07/02 04:06:07;;;;;;;11.02;9.30;;;12.70;99.90;;;;;;4985743;28;20560;-74
2022/07/02 04:08:33;;;;;;;10.23;9.23;;;12.80;99.90;;;;;;4953201;28;20053;-74
2022/07/02 04:10:59;;;;;;;12.57;9.30;;;12.80;99.90;;;;;;4969755;28;20330;-74
2022/07/02 04:13:25;;;;;;;9.85;8.48;;;12.80;99.90;;;;;;4985673;28;20073;-74
2022/07/02 04:15:51;;;;;;;10.40;9.38;;;12.80;99.90;;;;;;5002250;28;20049;-74
2022/07/02 04:18:20;;;;;;;9.55;8.57;;;12.80;99.90;;;;;;4985671;28;20084;-74
2022/07/02 04:20:46;;;;;;;9.80;8.40;;;12.80;99.90;;;;;;5001251;28;20598;-74
2022/07/02 04:23:12;;;;;;;10.23;8.63;;;12.90;99.90;;;;;;4986049;28;20137;-74
2022/07/02 04:25:38;;;;;;;12.45;11.18;;;12.90;99.90;;;;;;4986528;28;20092;-74
2022/07/02 04:28:04;;;;;;;10.18;9.05;;;12.90;99.90;;;;;;4989000;28;20050;-74
2022/07/02 04:30:30;;;;;;;10.80;9.10;;;12.90;99.90;;;;;;5004496;28;20416;-74
2022/07/02 04:32:56;;;;;;;9.90;8.90;;;12.90;99.90;;;;;;4972998;28;20116;-75
2022/07/02 04:35:22;;;;;;;10.77;9.77;;;12.90;99.90;;;;;;4987321;28;20037;-74
2022/07/02 04:37:50;;;;;;;12.50;9.02;;;13.00;99.90;;;;;;5003746;28;20042;-74
2022/07/02 04:40:16;;;;;;;10.30;9.30;;;12.90;99.90;;;;;;4989735;28;20125;-74
2022/07/02 04:42:42;;;;;;;12.55;11.45;;;13.00;99.90;;;;;;4971006;28;20142;-73
2022/07/02 04:45:09;;;;;;;12.40;11.20;;;13.00;99.90;;;;;;5005237;28;20124;-74
2022/07/02 04:47:35;;;;;;;12.20;11.00;;;13.00;99.90;;;;;;5004520;28;20070;-74
2022/07/02 04:50:00;;;;;;;12.40;10.63;;;13.10;99.90;;;;;;4972531;28;20396;-74
2022/07/02 04:52:29;;;;;;;11.50;10.07;;;13.10;99.90;;;;;;4970676;28;20401;-73
2022/07/02 04:54:55;;;;;;;12.48;10.85;;;13.20;99.90;;;;;;4984559;28;20050;-72
2022/07/02 04:57:20;;;;;;;11.38;10.18;;;13.20;99.90;;;;;;4972206;28;20507;-73
2022/07/02 04:59:46;;;;;;;11.80;9.95;;;13.30;99.90;;;;;;4987664;28;20108;-73
2022/07/02 05:02:12;;;;;;;11.52;10.05;;;13.40;99.90;;;;;;4972725;28;20519;-73
2022/07/02 05:04:39;;;;;;;10.38;9.27;;;13.50;99.90;;;;;;4987928;28;20052;-73
2022/07/02 05:07:05;;;;;;;10.98;8.80;;;13.50;99.90;;;;;;4987452;28;20064;-74
2022/07/02 05:09:31;;;;;;;11.48;9.00;;;13.60;99.90;;;;;;4969962;28;20062;-73
2022/07/02 05:11:57;;;;;;;11.50;8.38;;;13.60;99.90;;;;;;4986436;28;20061;-73
2022/07/02 05:14:23;;;;;;;12.02;7.85;;;13.80;99.90;;;;;;4988622;28;20050;-73
2022/07/02 05:16:49;;;;;;;9.98;8.32;;;13.80;99.90;;;;;;5003057;28;20061;-73
2022/07/02 05:19:15;;;;;;;14.00;9.05;;;13.80;99.90;;;;;;4987830;28;20520;-73
2022/07/02 05:21:42;;;;;;;9.93;8.23;;;13.90;99.90;;;;;;5000991;28;20046;-72
2022/07/02 05:24:07;;;;;;;9.13;7.88;;;14.00;99.90;;;;;;4968350;28;20489;-73
2022/07/02 05:26:36;;;;;;;8.27;7.07;;;14.00;99.90;;;;;;4984622;28;20050;-74
2022/07/02 05:29:03;;;;;;;11.45;7.80;;;14.10;99.90;;;;;;4968917;28;20078;-73
2022/07/02 05:31:28;;;;;;;10.43;7.28;;;14.10;99.90;;;;;;4984689;28;20038;-73
2022/07/02 05:33:54;;;;;;;10.63;8.13;;;14.20;99.90;;;;;;4983032;28;20037;-73
2022/07/02 05:36:20;;;;;;;10.93;8.32;;;14.20;99.90;;;;;;4968442;28;20117;-73
2022/07/02 05:38:46;;;;;;;9.23;7.07;;;14.30;99.90;;;;;;4979028;28;20624;-73
2022/07/02 05:41:12;;;;;;;9.13;7.50;;;14.40;99.90;;;;;;4984466;28;20045;-72
2022/07/02 05:43:37;;;;;;;10.38;7.20;;;14.40;99.90;;;;;;4969520;28;20302;-73
2022/07/02 05:46:03;;;;;;;11.35;7.90;;;14.50;99.90;;;;;;4969706;28;20046;-72
2022/07/02 05:48:29;;;;;;;11.77;7.15;;;14.60;99.90;;;;;;4968750;28;20060;-74
2022/07/02 05:50:55;;;;;;;9.15;6.78;;;14.60;99.90;;;;;;4984814;28;20044;-73
2022/07/02 05:53:21;;;;;;;8.38;6.95;;;14.70;99.90;;;;;;5000684;28;20100;-74
2022/07/02 05:55:46;;;;;;;8.98;6.22;;;14.70;99.90;;;;;;5001237;28;20042;-74
2022/07/02 05:58:12;;;;;;;9.95;6.13;;;14.80;99.90;;;;;;4952926;28;20034;-73
2022/07/02 06:00:39;;;;;;;6.95;5.80;;;14.90;99.90;;;;;;4984689;28;20046;-73
2022/07/02 06:03:05;;;;;;;7.93;5.90;;;14.90;99.90;;;;;;4966750;28;20264;-73
2022/07/02 06:08:15;;;;;;;10.20;5.65;;;15.10;99.90;;;;;;4999042;28;20053;-73
2022/07/02 06:10:41;;;;;;;8.95;5.90;;;15.20;99.90;;;;;;4968894;28;20050;-73
2022/07/02 06:13:07;;;;;;;7.88;5.22;;;15.20;99.90;;;;;;4983958;28;20742;-73
2022/07/02 06:15:33;;;;;;;8.98;5.82;;;15.30;99.90;;;;;;4982617;28;20048;-73
2022/07/02 06:18:02;;;;;;;6.70;4.63;;;15.30;99.90;;;;;;4966873;28;20088;-73
2022/07/02 06:20:29;;;;;;;7.83;4.67;;;15.40;99.90;;;;;;4953086;28;20048;-73
2022/07/02 06:22:55;;;;;;;7.18;3.85;;;15.50;99.90;;;;;;4999738;28;20103;-73
2022/07/02 06:25:20;;;;;;;7.93;4.10;;;15.60;99.90;;;;;;4984306;28;20073;-72
2022/07/02 06:27:46;;;;;;;5.43;3.33;;;15.60;99.90;;;;;;5000784;28;20095;-73
2022/07/02 06:30:12;;;;;;;7.43;3.75;;;15.70;99.90;;;;;;4984816;28;20902;-72
2022/07/02 06:32:38;;;;;;;7.88;3.20;;;15.70;99.90;;;;;;4981914;28;20058;-73
2022/07/02 06:35:04;;;;;;;7.30;3.72;;;15.80;99.90;;;;;;4984472;28;20060;-73
2022/07/02 06:37:30;;;;;;;5.25;3.03;;;15.90;99.90;;;;;;5001085;28;20137;-74
2022/07/02 06:39:57;;;;;;;4.95;3.20;;;15.90;99.90;;;;;;4965642;28;20046;-73
2022/07/02 06:42:23;;;;;;;5.75;2.90;;;16.00;99.90;;;;;;5000643;28;20100;-73
2022/07/02 06:44:51;;;;;;;5.20;3.00;;;16.10;99.90;;;;;;4968200;28;20523;-73
2022/07/02 06:47:21;;;;;;;7.80;2.70;;;16.20;99.90;;;;;;4984169;28;20056;-73
2022/07/02 06:49:51;;;;;;;5.60;2.97;;;16.20;99.90;;;;;;4983654;28;20064;-73
2022/07/02 06:52:20;;;;;;;7.22;3.00;;;16.30;99.90;;;;;;5001064;28;20440;-72
2022/07/02 06:54:46;;;;;;;6.38;2.42;;;16.50;99.90;;;;;;4982755;28;20073;-73
2022/07/02 06:57:12;;;;;;;4.72;2.17;;;16.50;99.90;;;;;;4983768;28;20065;-72
2022/07/02 06:59:37;;;;;;;5.47;1.85;;;16.60;99.90;;;;;;5000199;28;20833;-73
2022/07/02 07:02:04;;;;;;;5.30;2.22;;;16.70;99.90;;;;;;4966826;28;20057;-73
2022/07/02 07:04:31;;;;;;;4.45;2.15;;;16.80;99.90;;;;;;5000818;28;20077;-73
2022/07/02 07:06:57;;;;;;;5.90;2.40;;;16.90;99.90;;;;;;4999592;28;20053;-73
2022/07/02 07:09:23;;;;;;;5.43;2.30;;;17.00;99.90;;;;;;5000321;28;20034;-73
2022/07/02 07:11:50;;;;;;;6.45;2.28;;;17.10;99.90;;;;;;4999670;28;20034;-73
2022/07/02 07:14:16;;;;;;;4.13;1.77;;;17.20;99.90;;;;;;4969662;28;20076;-73
2022/07/02 07:16:42;;;;;;;4.85;2.25;;;17.40;99.90;;;;;;4981908;28;20045;-73
2022/07/02 07:19:08;;;;;;;5.03;2.17;;;17.50;99.90;;;;;;4998083;28;20050;-73
2022/07/02 07:21:43;;;;;;;6.05;2.03;;;17.60;99.90;;;;;;4982837;28;20069;-73
2022/07/02 07:24:09;;;;;;;4.40;1.75;;;17.70;99.90;;;;;;4999125;28;20042;-73
2022/07/02 07:26:37;;;;;;;3.58;1.40;;;17.80;99.90;;;;;;4999760;28;20140;-72
2022/07/02 07:29:05;;;;;;;2.88;1.65;;;17.80;99.90;;;;;;4981064;28;20050;-73
2022/07/02 07:31:32;;;;;;;6.15;1.92;;;18.00;99.90;;;;;;4984736;28;20092;-73
2022/07/02 07:33:58;;;;;;;4.45;1.83;;;18.10;99.90;;;;;;5000394;28;20417;-73
2022/07/02 07:36:26;;;;;;;4.30;1.70;;;18.20;99.90;;;;;;4999969;28;20054;-73
2022/07/02 07:38:52;;;;;;;4.68;1.42;;;18.30;99.90;;;;;;4999232;28;20038;-72
2022/07/02 07:41:20;;;;;;;4.22;1.70;;;18.20;99.90;;;;;;5000286;28;20401;-72
2022/07/02 07:43:46;;;;;;;5.28;1.45;;;18.30;99.90;;;;;;5000171;28;20041;-72
2022/07/02 07:46:12;;;;;;;4.38;1.58;;;18.40;99.90;;;;;;4998999;28;20113;-72
2022/07/02 07:48:38;;;;;;;3.63;1.30;;;18.50;99.90;;;;;;4967305;28;20183;-72
2022/07/02 07:51:05;;;;;;;4.05;1.60;;;18.60;99.90;;;;;;4999540;28;20042;-72
2022/07/02 07:53:32;;;;;;;4.45;1.50;;;18.70;99.90;;;;;;4997124;28;20088;-73
2022/07/02 07:55:58;;;;;;;5.30;1.77;;;18.70;99.90;;;;;;4981347;28;20060;-73
2022/07/02 07:58:23;;;;;;;3.55;1.50;;;18.80;99.90;;;;;;5000662;28;20038;-72
2022/07/02 08:00:49;;;;;;;4.60;1.38;;;18.90;99.90;;;;;;5001160;28;20111;-72
2022/07/02 08:03:17;;;;;;;2.90;1.17;;;19.00;99.90;;;;;;4988281;28;20041;-72
2022/07/02 08:05:43;;;;;;;3.25;1.20;;;19.10;99.90;;;;;;5004259;28;20042;-73
2022/07/02 08:08:09;;;;;;;3.50;1.20;;;19.30;99.90;;;;;;4987127;28;20045;-72
2022/07/02 08:10:35;;;;;;;5.00;1.55;;;19.40;99.90;;;;;;4970468;28;20049;-73
2022/07/02 08:13:04;;;;;;;3.05;1.05;;;19.40;99.90;;;;;;4971864;28;20050;-73
2022/07/02 08:15:30;;;;;;;2.45;0.90;;;19.50;99.90;;;;;;4987664;28;20038;-72
2022/07/02 08:17:55;;;;;;;2.80;0.75;;;19.60;99.90;;;;;;4987661;28;20050;-72
2022/07/02 08:20:21;;;;;;;2.25;0.73;;;19.70;99.90;;;;;;4988351;28;20588;-72
2022/07/02 08:22:49;;;;;;;3.00;1.20;;;19.70;99.90;;;;;;4985881;28;20061;-73
2022/07/02 08:25:15;;;;;;;1.33;0.60;;;19.80;99.90;;;;;;4985862;28;20109;-72
2022/07/02 08:27:45;;;;;;;2.90;0.70;;;20.00;99.90;;;;;;4985916;28;20563;-72
2022/07/02 08:30:11;;;;;;;1.75;0.75;;;20.10;99.90;;;;;;4987995;28;20045;-72
2022/07/02 08:32:38;;;;;;;3.67;1.17;;;20.20;99.90;;;;;;5002314;28;20049;-73
2022/07/02 08:35:05;;;;;;;2.72;0.93;;;20.30;99.90;;;;;;4982194;28;20448;-72
2022/07/02 08:37:31;;;;;;;1.88;0.70;;;20.40;99.90;;;;;;4969981;28;20136;-72
2022/07/02 08:39:57;;;;;;;2.55;1.00;;;20.50;99.90;;;;;;4987655;28;20049;-72
2022/07/02 08:42:28;;;;;;;4.50;1.20;;;20.70;99.90;;;;;;4986680;28;20452;-73
2022/07/02 08:45:00;;;;;;;3.05;0.80;;;20.80;99.90;;;;;;4986542;28;20052;-73
2022/07/02 08:47:26;;;;;;;2.83;1.00;;;20.80;98.90;;;;;;5002678;28;20053;-73
2022/07/02 08:49:54;;;;;;;0.98;0.52;;;20.80;98.10;;;;;;4967909;28;20082;-72
2022/07/02 08:52:21;;;;;;;1.40;0.40;;;20.80;98.50;;;;;;5003751;28;20042;-74
2022/07/02 08:54:48;;;;;;;4.25;0.85;;;20.80;94.50;;;;;;4969673;28;20099;-72
2022/07/02 08:57:15;;;;;;;1.73;0.47;;;20.90;96.30;;;;;;4987074;28;20049;-72
2022/07/02 08:59:41;;;;;;;4.13;0.60;;;21.00;96.00;;;;;;4986209;28;20137;-72
2022/07/02 09:02:10;;;;;;;1.65;0.50;;;21.00;92.90;;;;;;4970522;28;20153;-73
2022/07/02 09:04:46;;;;;;;1.17;0.40;;;21.00;90.70;;;;;;4985412;28;20112;-72
2022/07/02 09:07:14;;;;;;;1.70;0.60;;;21.00;89.80;;;;;;4986267;28;20077;-73
2022/07/02 09:09:42;;;;;;;1.80;0.60;;;21.00;90.40;;;;;;5002294;28;20044;-72
2022/07/02 09:12:16;;;;;;;1.95;0.43;;;21.00;91.50;;;;;;5003415;28;20574;-72
2022/07/02 09:14:43;;;;;;;1.50;0.60;;;21.10;90.70;;;;;;5002634;28;20726;-72
2022/07/02 09:17:11;;;;;;;1.58;0.60;;;21.20;90.20;;;;;;4986199;28;20034;-73
2022/07/02 09:19:38;;;;;;;1.10;0.30;;;21.30;89.60;;;;;;4998733;28;20126;-73
2022/07/02 09:22:05;;;;;;;2.28;0.50;;;21.40;85.70;;;;;;4986851;28;20054;-72
2022/07/02 09:24:37;;;;;;;2.03;0.32;;;21.50;76.20;;;;;;4985397;28;20069;-72
2022/07/02 09:27:09;;;;;;;0.93;0.30;;;21.50;75.40;;;;;;5003557;28;20397;-72
2022/07/02 09:29:50;;;;;;;1.27;0.40;;;21.60;79.20;;;;;;4999677;28;20037;-72
2022/07/02 09:32:16;;;;;;;1.10;0.30;;;21.70;79.40;;;;;;4987722;28;20044;-73
2022/07/02 09:34:44;;;;;;;2.78;0.30;;;21.80;75.40;;;;;;4995493;28;20044;-73
2022/07/02 09:37:18;;;;;;;0.80;0.38;;;21.90;76.10;;;;;;4986155;28;20077;-72
2022/07/02 09:39:46;;;;;;;1.92;0.40;;;22.10;79.00;;;;;;5001402;28;20140;-72
2022/07/02 09:42:22;;;;;;;0.85;0.30;;;22.20;82.50;;;;;;4984663;28;20645;-73
2022/07/02 09:44:48;;;;;;;1.80;0.40;;;22.30;79.50;;;;;;4985084;28;20046;-72
2022/07/02 09:47:14;;;;;;;1.73;0.65;;;22.40;80.90;;;;;;5003373;28;20137;-72
2022/07/02 09:49:49;;;;;;;1.83;0.40;;;22.40;79.60;;;;;;4984878;28;20487;-73
2022/07/02 09:52:18;;;;;;;1.25;0.40;;;22.40;79.40;;;;;;5001574;28;20489;-73
2022/07/02 09:54:45;;;;;;;1.52;0.40;;;22.50;80.30;;;;;;4953854;28;20456;-73
2022/07/02 09:57:12;;;;;;;2.10;0.40;;;22.50;79.70;;;;;;4998886;28;20042;-73
2022/07/02 09:59:39;;;;;;;1.98;0.40;;;22.60;79.60;;;;;;5001644;28;20050;-73
2022/07/02 10:02:17;;;;;;;1.90;0.57;;;22.60;78.10;;;;;;5002056;28;20405;-73
2022/07/02 10:04:44;;;;;;;2.70;0.63;;;22.60;80.50;;;;;;4984641;28;20057;-73
2022/07/02 10:07:10;;;;;;;1.73;0.40;;;22.50;76.80;;;;;;4984898;28;20133;-73
2022/07/02 10:09:39;;;;;;;2.03;0.60;;;22.40;77.20;;;;;;5002734;28;20049;-73
2022/07/02 10:12:08;;;;;;;1.40;0.40;;;22.40;77.10;;;;;;4983736;28;20046;-73
2022/07/02 10:14:36;;;;;;;4.47;0.60;;;22.40;77.00;;;;;;4999823;28;20712;-72
2022/07/02 10:17:03;;;;;;;3.55;0.50;;;22.40;79.60;;;;;;4984409;28;20049;-73
2022/07/02 10:19:30;;;;;;;2.25;0.60;;;22.40;70.70;;;;;;5001805;28;20057;-72
2022/07/02 10:21:56;;;;;;;1.33;0.47;;;22.40;69.80;;;;;;5001325;28;20049;-72
2022/07/02 10:24:25;;;;;;;2.00;0.30;;;22.40;69.80;;;;;;5000560;28;20033;-74
2022/07/02 10:26:51;;;;;;;2.58;0.40;;;22.40;69.90;;;;;;4982890;28;20368;-73
2022/07/02 10:29:18;;;;;;;2.75;0.40;;;22.40;68.50;;;;;;4982595;28;20037;-73
2022/07/02 10:31:52;;;;;;;2.30;0.30;;;22.40;67.70;;;;;;5000664;28;20065;-73
2022/07/02 10:34:48;;;;;;;1.27;0.40;;;22.50;68.30;;;;;;4999885;28;20048;-72
2022/07/02 10:37:16;;;;;;;1.48;0.38;;;22.60;69.90;;;;;;5001060;28;20073;-74
2022/07/02 10:39:43;;;;;;;2.47;0.40;;;22.70;70.60;;;;;;4964717;28;20543;-73
2022/07/02 10:42:09;;;;;;;2.53;0.35;;;22.80;73.00;;;;;;5001941;28;20132;-73
2022/07/02 10:44:40;;;;;;;1.83;0.40;;;23.10;79.00;;;;;;5000820;28;20080;-73
2022/07/02 10:47:34;;;;;;;1.85;0.30;;;23.40;72.30;;;;;;4985224;28;20038;-73
2022/07/02 10:50:00;;;;;;;1.15;0.40;;;23.60;66.30;;;;;;5000259;28;20080;-72
2022/07/02 10:52:39;;;;;;;3.70;0.50;;;23.60;71.30;;;;;;5001232;28;20030;-73
2022/07/02 10:55:05;;;;;;;2.90;0.30;;;23.70;66.50;;;;;;4967408;28;20045;-73
2022/07/02 10:57:31;;;;;;;1.85;0.50;;;23.60;67.30;;;;;;4982938;28;20531;-74
2022/07/02 10:59:57;;;;;;;2.28;0.40;;;23.60;73.30;;;;;;5015765;28;20038;-73
2022/07/02 11:02:34;;;;;;;4.32;0.57;;;23.70;69.50;;;;;;4984789;28;20722;-74
2022/07/02 11:05:13;;;;;;;1.75;0.35;;;23.80;67.40;;;;;;5000599;28;20037;-73
2022/07/02 11:07:44;;;;;;;2.15;0.50;;;23.90;70.10;;;;;;4985684;28;20053;-73
2022/07/02 11:10:12;;;;;;;1.20;0.30;;;24.00;68.30;;;;;;4984836;28;20084;-74
2022/07/02 11:12:52;;;;;;;1.90;0.40;;;24.00;70.40;;;;;;4984749;28;20803;-73
2022/07/02 11:15:38;;;;;;;1.23;0.40;;;24.00;66.20;;;;;;5000363;28;20099;-73
2022/07/02 11:18:07;;;;;;;2.13;0.50;;;23.90;65.30;;;;;;4984806;28;20064;-73
2022/07/02 11:20:37;;;;;;;2.08;0.50;;;23.90;66.10;;;;;;4984255;28;20038;-74
2022/07/02 11:23:04;;;;;;;2.45;0.60;;;24.00;66.00;;;;;;4984655;28;20081;-73
2022/07/02 11:25:31;;;;;;;3.72;0.52;;;24.00;65.40;;;;;;4984037;28;20511;-73
2022/07/02 11:28:02;;;;;;;2.08;0.50;;;23.80;62.50;;;;;;4966953;28;20056;-73
2022/07/02 11:30:31;;;;;;;1.90;0.52;;;23.60;63.30;;;;;;4984511;28;20073;-74
2022/07/02 11:32:57;;;;;;;3.30;0.77;;;23.30;65.30;;;;;;5000126;28;20468;-74
2022/07/02 11:35:24;;;;;;;1.95;0.40;;;23.20;65.50;;;;;;4985118;28;20052;-74
2022/07/02 11:37:55;;;;;;;2.55;0.80;;;23.20;68.20;;;;;;5003849;28;20057;-74
2022/07/02 11:40:22;;;;;;;2.65;0.95;;;23.20;71.20;;;;;;5003019;28;20145;-73
2022/07/02 11:42:48;;;;;;;2.38;0.60;;;23.00;69.50;;;;;;5004061;28;20129;-73
2022/07/02 11:45:16;;;;;;;2.00;0.50;;;23.00;70.30;;;;;;4988504;28;20132;-73
2022/07/02 11:47:52;;;;;;;2.08;0.50;;;23.20;72.50;;;;;;4986835;28;20136;-74
2022/07/02 11:50:31;;;;;;;3.17;0.77;;;23.50;71.40;;;;;;5003262;28;20075;-73
2022/07/02 11:52:57;;;;;;;1.20;0.45;;;23.50;70.00;;;;;;5004819;28;20554;-74
2022/07/02 11:55:24;;;;;;;1.52;0.40;;;23.20;67.60;;;;;;5004237;28;20223;-74
2022/07/02 11:57:51;;;;;;;3.28;0.70;;;23.00;68.40;;;;;;4971479;28;20056;-73
2022/07/02 12:00:18;;;;;;;2.90;0.65;;;22.90;69.30;;;;;;5003203;28;20172;-73
2022/07/02 12:02:44;;;;;;;1.35;0.50;;;22.70;71.30;;;;;;4971534;28;20037;-73
2022/07/02 12:05:19;;;;;;;1.40;0.40;;;22.70;72.00;;;;;;4986874;28;20041;-74
2022/07/02 12:07:46;;;;;;;1.13;0.40;;;22.90;72.50;;;;;;5004791;28;20050;-73
2022/07/02 12:10:14;;;;;;;3.30;0.60;;;23.00;73.60;;;;;;5002503;28;20109;-74
2022/07/02 12:12:40;;;;;;;2.13;0.57;;;23.20;72.40;;;;;;5002526;28;20528;-73
2022/07/02 12:15:07;;;;;;;2.22;0.55;;;23.30;76.50;;;;;;4984942;28;20985;-73
2022/07/02 12:17:35;;;;;;;0.95;0.40;;;23.50;74.90;;;;;;4989586;28;20408;-74
2022/07/02 12:20:03;;;;;;;1.45;0.40;;;23.70;72.50;;;;;;4969902;28;20474;-73
2022/07/02 12:22:29;;;;;;;4.30;0.75;;;23.70;73.80;;;;;;4987767;28;20057;-74
2022/07/02 12:24:55;;;;;;;2.72;0.68;;;23.60;71.20;;;;;;5003217;28;20042;-73
2022/07/02 12:27:24;;;;;;;2.83;0.70;;;23.50;68.10;;;;;;5004167;28;20056;-73
2022/07/02 12:29:53;;;;;;;2.28;0.57;;;23.50;69.60;;;;;;4985767;28;20806;-73
2022/07/02 12:32:32;;;;;;;2.00;0.73;;;23.40;69.90;;;;;;4972176;28;20665;-73
2022/07/02 12:35:10;;;;;;;2.53;0.60;;;23.50;70.20;;;;;;4987357;28;20084;-74
2022/07/02 12:37:44;;;;;;;2.67;0.52;;;23.70;73.00;;;;;;5001624;28;20046;-74
2022/07/02 12:40:14;;;;;;;2.30;0.50;;;23.90;69.20;;;;;;4984820;28;20428;-74
2022/07/02 12:42:52;;;;;;;3.15;0.52;;;23.90;69.00;;;;;;5003718;28;20049;-74
2022/07/02 12:45:26;;;;;;;1.88;0.60;;;23.80;70.60;;;;;;5002758;28;20776;-74
2022/07/02 12:48:26;;;;;;;4.03;0.70;;;23.70;73.50;;;;;;5017082;28;20120;-73
2022/07/02 12:50:53;;;;;;;2.33;0.60;;;23.60;67.00;;;;;;4996267;28;20050;-74
2022/07/02 12:53:20;;;;;;;5.25;0.70;;;23.50;69.20;;;;;;4987982;28;20736;-74